createdAt,value
2018-06-25T00:01:50.945Z,6.90
2018-06-25T00:04:20.221Z,7.57
2018-06-25T00:06:49.188Z,8.67
2018-06-25T00:09:18.129Z,8.17
2018-06-25T00:11:47.048Z,8.10
2018-06-25T00:14:16.017Z,8.50
2018-06-25T00:16:45.057Z,8.80
2018-06-25T00:19:14.069Z,8.93
2018-06-25T00:21:43.000Z,10.40
2018-06-25T00:24:11.953Z,11.23
2018-06-25T00:26:40.881Z,10.97
2018-06-25T00:29:09.841Z,11.93
2018-06-25T00:31:38.797Z,10.63
2018-06-25T00:34:07.727Z,11.10
2018-06-25T00:36:36.735Z,10.97
2018-06-25T00:39:08.921Z,12.73
2018-06-25T00:41:38.109Z,11.77
2018-06-25T00:44:07.197Z,11.93
2018-06-25T00:46:36.147Z,10.77
2018-06-25T00:49:05.165Z,10.60
2018-06-25T00:51:34.199Z,8.90
2018-06-25T00:54:03.168Z,9.23
2018-06-25T00:56:32.114Z,8.60
2018-06-25T00:59:12.549Z,8.87
2018-06-25T01:01:41.529Z,10.27
2018-06-25T01:04:10.477Z,10.23
2018-06-25T01:06:39.456Z,8.57
2018-06-25T01:09:10.629Z,8.50
2018-06-25T01:11:39.753Z,8.33
2018-06-25T01:14:08.701Z,8.47
2018-06-25T01:16:37.641Z,8.43
2018-06-25T01:19:06.685Z,8.70
2018-06-25T01:21:35.629Z,8.20
2018-06-25T01:24:04.569Z,7.17
2018-06-25T01:26:33.509Z,6.80
2018-06-25T01:29:02.426Z,7.60
2018-06-25T01:31:31.329Z,6.63
2018-06-25T01:34:05.945Z,6.63
2018-06-25T01:36:34.887Z,6.67
2018-06-25T01:39:04.794Z,6.93
2018-06-25T01:41:33.774Z,6.70
2018-06-25T01:44:02.788Z,6.60
2018-06-25T01:46:31.788Z,5.87
2018-06-25T01:49:00.784Z,6.27
2018-06-25T01:51:29.672Z,5.87
2018-06-25T01:53:58.772Z,6.70
2018-06-25T01:56:27.738Z,5.87
2018-06-25T01:58:56.678Z,5.33
2018-06-25T02:01:25.682Z,6.47
2018-06-25T02:03:54.719Z,6.33
2018-06-25T02:06:24.698Z,6.73
2018-06-25T02:08:53.612Z,5.57
2018-06-25T02:11:22.558Z,6.10
2018-06-25T02:13:51.474Z,5.83
2018-06-25T02:16:20.483Z,5.83
2018-06-25T02:18:49.385Z,5.93
2018-06-25T02:21:18.388Z,6.97
2018-06-25T02:23:47.362Z,7.00
2018-06-25T02:26:16.279Z,6.83
2018-06-25T02:28:45.280Z,6.13
2018-06-25T02:31:14.283Z,6.37
2018-06-25T02:33:43.225Z,6.87
2018-06-25T02:36:12.142Z,7.50
2018-06-25T02:38:41.255Z,6.80
2018-06-25T02:41:10.179Z,6.37
2018-06-25T02:43:39.165Z,6.80
2018-06-25T02:46:08.139Z,6.73
2018-06-25T02:48:37.087Z,7.20
2018-06-25T02:51:06.131Z,6.93
2018-06-25T02:53:35.079Z,6.63
2018-06-25T02:56:04.085Z,7.23
2018-06-25T02:58:33.042Z,7.50
2018-06-25T03:01:01.973Z,6.73
2018-06-25T03:03:30.914Z,7.23
2018-06-25T03:05:59.842Z,7.40
2018-06-25T03:08:28.805Z,6.67
2018-06-25T03:10:57.784Z,6.90
2018-06-25T03:13:26.789Z,7.27
2018-06-25T03:15:55.719Z,6.23
2018-06-25T03:18:24.683Z,7.20
2018-06-25T03:20:53.661Z,6.83
2018-06-25T03:23:22.552Z,8.57
2018-06-25T03:25:51.511Z,6.33
2018-06-25T03:28:20.476Z,7.43
2018-06-25T03:30:49.519Z,6.60
2018-06-25T03:33:18.484Z,7.03
2018-06-25T03:35:47.470Z,7.00
2018-06-25T03:38:16.374Z,7.60
2018-06-25T03:40:45.359Z,7.07
2018-06-25T03:43:14.376Z,8.00
2018-06-25T03:45:43.421Z,7.37
2018-06-25T03:48:12.460Z,7.43
2018-06-25T03:50:41.492Z,7.67
2018-06-25T03:53:10.425Z,7.23
2018-06-25T03:55:39.405Z,7.27
2018-06-25T03:58:08.420Z,6.87
2018-06-25T04:00:37.385Z,7.17
2018-06-25T04:03:06.458Z,7.43
2018-06-25T04:05:35.457Z,7.13
2018-06-25T04:08:04.523Z,7.80
2018-06-25T04:10:33.456Z,8.23
2018-06-25T04:13:02.461Z,7.30
2018-06-25T04:15:31.374Z,7.40
2018-06-25T04:18:00.373Z,8.73
2018-06-25T04:20:29.342Z,7.97
2018-06-25T04:22:58.242Z,7.13
2018-06-25T04:25:27.661Z,7.53
2018-06-25T04:27:56.782Z,7.20
2018-06-25T04:30:25.711Z,7.97
2018-06-25T04:32:54.753Z,7.57
2018-06-25T04:35:23.722Z,7.30
2018-06-25T04:37:52.609Z,7.67
2018-06-25T04:40:21.630Z,8.50
2018-06-25T04:42:55.883Z,6.93
2018-06-25T04:45:24.810Z,7.80
2018-06-25T04:47:57.610Z,7.27
2018-06-25T04:50:26.609Z,7.60
2018-06-25T04:52:55.513Z,7.80
2018-06-25T04:55:24.583Z,7.43
2018-06-25T04:57:53.584Z,7.60
2018-06-25T05:00:22.537Z,7.03
2018-06-25T05:02:51.530Z,7.73
2018-06-25T05:05:20.646Z,7.47
2018-06-25T05:07:49.637Z,6.83
2018-06-25T05:10:18.581Z,6.97
2018-06-25T05:12:47.509Z,7.20
2018-06-25T05:15:16.501Z,7.97
2018-06-25T05:17:45.473Z,6.60
2018-06-25T05:20:14.414Z,6.60
2018-06-25T05:22:43.429Z,6.90
2018-06-25T05:25:12.456Z,6.47
2018-06-25T05:27:41.379Z,7.23
2018-06-25T05:30:10.410Z,6.87
2018-06-25T05:32:39.402Z,6.90
2018-06-25T05:35:08.317Z,6.53
2018-06-25T05:37:37.287Z,6.07
2018-06-25T05:40:06.299Z,6.83
2018-06-25T05:42:35.363Z,6.83
2018-06-25T05:45:04.429Z,7.03
2018-06-25T05:47:33.393Z,7.03
2018-06-25T05:50:02.339Z,6.57
2018-06-25T05:52:31.352Z,6.33
2018-06-25T05:55:00.333Z,5.90
2018-06-25T05:57:29.290Z,6.30
2018-06-25T05:59:58.256Z,5.70
2018-06-25T06:02:27.187Z,6.20
2018-06-25T06:04:56.108Z,5.70
2018-06-25T06:07:25.137Z,6.77
2018-06-25T06:09:54.151Z,6.33
2018-06-25T06:12:23.114Z,6.63
2018-06-25T06:14:52.107Z,6.23
2018-06-25T06:17:21.085Z,6.77
2018-06-25T06:19:49.980Z,6.57
2018-06-25T06:22:18.974Z,6.80
2018-06-25T06:24:47.973Z,6.17
2018-06-25T06:27:16.946Z,5.50
2018-06-25T06:29:45.906Z,6.07
2018-06-25T06:32:15.024Z,6.27
2018-06-25T06:34:43.936Z,5.57
2018-06-25T06:37:12.987Z,5.93
2018-06-25T06:39:41.975Z,6.13
2018-06-25T06:42:10.978Z,6.80
2018-06-25T06:44:40.064Z,7.07
2018-06-25T06:47:09.085Z,6.50
2018-06-25T06:49:38.022Z,5.87
2018-06-25T06:52:07.109Z,6.13
2018-06-25T06:54:36.073Z,6.50
2018-06-25T06:57:05.193Z,6.13
2018-06-25T06:59:34.232Z,7.27
2018-06-25T07:02:03.344Z,6.03
2018-06-25T07:04:32.644Z,6.67
2018-06-25T07:07:01.848Z,6.10
2018-06-25T07:09:30.838Z,6.20
2018-06-25T07:11:59.960Z,7.00
2018-06-25T07:14:29.068Z,5.87
2018-06-25T07:16:58.019Z,6.37
2018-06-25T07:19:26.938Z,6.43
2018-06-25T07:21:56.026Z,6.50
2018-06-25T07:24:24.996Z,7.47
2018-06-25T07:26:57.300Z,6.20
2018-06-25T07:29:26.265Z,7.50
2018-06-25T07:31:56.236Z,6.73
2018-06-25T07:34:25.263Z,6.03
2018-06-25T07:36:54.288Z,6.03
2018-06-25T07:39:23.259Z,5.83
2018-06-25T07:43:21.737Z,5.43
2018-06-25T07:45:50.753Z,5.47
2018-06-25T07:48:19.846Z,5.90
2018-06-25T07:50:51.026Z,6.37
2018-06-25T07:53:20.081Z,6.27
2018-06-25T07:55:48.949Z,6.40
2018-06-25T07:58:17.968Z,6.00
2018-06-25T08:00:46.909Z,6.60
2018-06-25T08:03:15.896Z,6.00
2018-06-25T08:05:44.988Z,6.90
2018-06-25T08:08:13.973Z,6.03
2018-06-25T08:10:43.128Z,6.00
2018-06-25T08:13:12.090Z,6.20
2018-06-25T08:15:41.209Z,6.43
2018-06-25T08:18:15.904Z,6.27
2018-06-25T08:20:45.021Z,6.83
2018-06-25T08:23:13.964Z,5.90
2018-06-25T08:25:42.960Z,6.73
2018-06-25T08:28:11.896Z,5.77
2018-06-25T08:30:40.834Z,6.10
2018-06-25T08:33:09.804Z,6.33
2018-06-25T08:35:38.791Z,7.03
2018-06-25T08:38:07.898Z,6.90
2018-06-25T08:40:36.898Z,8.13
2018-06-25T08:43:05.981Z,8.10
2018-06-25T08:45:34.972Z,8.33
2018-06-25T08:48:03.964Z,7.73
2018-06-25T08:50:33.029Z,7.37
2018-06-25T08:53:01.973Z,6.90
2018-06-25T08:55:30.942Z,7.63
2018-06-25T08:58:00.237Z,6.53
2018-06-25T09:00:29.189Z,5.33
2018-06-25T09:02:59.175Z,5.93
2018-06-25T09:05:28.258Z,5.73
2018-06-25T09:07:57.369Z,5.57
2018-06-25T09:10:26.318Z,6.40
2018-06-25T09:12:55.299Z,6.13
2018-06-25T09:15:24.375Z,6.10
2018-06-25T09:17:53.278Z,6.23
2018-06-25T09:20:22.568Z,6.90
2018-06-25T09:22:51.545Z,4.90
2018-06-25T09:25:20.538Z,4.97
2018-06-25T09:27:50.289Z,4.57
2018-06-25T09:30:20.215Z,5.33
2018-06-25T09:32:49.184Z,5.03
2018-06-25T09:35:18.208Z,5.40
2018-06-25T09:37:47.108Z,6.27
2018-06-25T09:40:16.022Z,5.43
2018-06-25T09:42:44.999Z,5.50
2018-06-25T09:45:14.189Z,4.67
2018-06-25T09:47:43.179Z,5.80
2018-06-25T09:50:12.209Z,5.33
2018-06-25T09:52:41.210Z,4.87
2018-06-25T09:55:10.283Z,5.30
2018-06-25T09:57:39.291Z,4.90
2018-06-25T10:00:08.289Z,5.03
2018-06-25T10:02:37.217Z,4.87
2018-06-25T10:05:06.297Z,5.07
2018-06-25T10:07:35.425Z,4.73
2018-06-25T10:10:04.459Z,4.90
2018-06-25T10:22:18.404Z,4.23
2018-06-25T10:24:47.417Z,3.13
2018-06-25T10:27:16.396Z,3.27
2018-06-25T10:29:45.341Z,3.70
2018-06-25T10:32:14.401Z,3.53
2018-06-25T10:34:43.399Z,2.90
2018-06-25T10:37:12.417Z,3.40
2018-06-25T10:39:41.354Z,3.50
2018-06-25T10:42:10.364Z,3.67
2018-06-25T10:44:39.266Z,4.30
2018-06-25T10:47:11.380Z,4.07
2018-06-25T10:49:40.465Z,3.47
2018-06-25T10:52:09.678Z,4.43
2018-06-25T10:54:39.792Z,4.13
2018-06-25T10:57:14.275Z,4.00
2018-06-25T10:59:43.311Z,3.83
2018-06-25T11:02:12.123Z,3.30
2018-06-25T11:04:41.128Z,4.53
2018-06-25T11:07:13.517Z,2.90
2018-06-25T11:09:45.544Z,2.70
2018-06-25T11:12:14.841Z,2.67
2018-06-25T11:14:43.783Z,2.83
2018-06-25T11:17:12.952Z,2.60
2018-06-25T11:19:42.367Z,2.77
2018-06-25T11:22:11.475Z,2.60
2018-06-25T11:24:41.038Z,2.70
2018-06-25T11:27:11.329Z,3.37
2018-06-25T11:29:41.317Z,2.70
2018-06-25T11:32:10.932Z,2.80
2018-06-25T11:34:39.982Z,3.00
2018-06-25T11:37:09.321Z,3.10
2018-06-25T11:39:38.237Z,2.63
2018-06-25T11:42:08.075Z,3.27
2018-06-25T11:44:37.233Z,2.87
2018-06-25T11:47:06.580Z,2.53
2018-06-25T11:49:36.728Z,2.73
2018-06-25T11:52:06.181Z,2.70
2018-06-25T11:54:35.558Z,2.83
2018-06-25T11:57:08.281Z,2.70
2018-06-25T11:59:41.105Z,2.80
2018-06-25T12:02:10.366Z,3.20
2018-06-25T12:04:39.319Z,2.43
2018-06-25T12:07:10.334Z,3.20
2018-06-25T12:09:42.410Z,2.77
2018-06-25T12:12:11.512Z,2.63
2018-06-25T12:14:40.440Z,2.70
2018-06-25T12:17:09.354Z,3.30
2018-06-25T12:19:38.415Z,2.50
2018-06-25T12:22:07.375Z,2.37
2018-06-25T12:24:36.381Z,2.80
2018-06-25T12:27:06.340Z,2.87
2018-06-25T12:29:39.005Z,2.10
2018-06-25T12:32:09.014Z,2.40
2018-06-25T12:34:37.905Z,2.33
2018-06-25T12:37:06.859Z,2.63
2018-06-25T12:39:35.785Z,2.30
2018-06-25T12:42:04.761Z,2.17
2018-06-25T12:44:33.742Z,2.30
2018-06-25T12:47:02.722Z,1.90
2018-06-25T12:49:32.644Z,2.17
2018-06-25T12:52:02.143Z,2.10
2018-06-25T12:54:31.085Z,1.90
2018-06-25T12:57:00.368Z,2.10
2018-06-25T12:59:29.377Z,1.83
2018-06-25T13:01:58.403Z,1.67
2018-06-25T13:04:27.402Z,1.67
2018-06-25T13:06:56.367Z,1.33
2018-06-25T13:09:25.282Z,1.97
2018-06-25T13:11:54.330Z,1.60
2018-06-25T13:14:25.680Z,1.80
2018-06-25T13:16:54.620Z,1.80
2018-06-25T13:19:23.529Z,1.97
2018-06-25T13:21:52.464Z,1.63
2018-06-25T13:24:26.919Z,2.13
2018-06-25T13:27:01.548Z,1.70
2018-06-25T13:29:36.019Z,1.43
2018-06-25T13:32:04.995Z,2.00
2018-06-25T13:34:33.961Z,1.80
2018-06-25T13:37:02.903Z,2.13
2018-06-25T13:39:40.712Z,2.17
2018-06-25T13:42:09.672Z,1.87
2018-06-25T13:44:38.727Z,1.87
2018-06-25T13:47:07.799Z,1.83
2018-06-25T13:49:41.734Z,1.80
2018-06-25T13:52:10.729Z,2.07
2018-06-25T13:54:39.782Z,1.50
2018-06-25T13:57:09.709Z,2.20
2018-06-25T13:59:38.781Z,1.53
2018-06-25T14:02:07.859Z,1.80
2018-06-25T14:04:37.103Z,1.33
2018-06-25T14:07:06.205Z,1.30
2018-06-25T14:09:35.165Z,1.40
2018-06-25T14:12:04.148Z,1.33
2018-06-25T14:14:33.176Z,1.50
2018-06-25T14:17:02.189Z,1.13
2018-06-25T14:19:31.048Z,1.47
2018-06-25T14:22:00.057Z,1.50
2018-06-25T14:25:02.072Z,1.53
2018-06-25T14:27:36.428Z,1.30
2018-06-25T14:30:10.591Z,1.53
2018-06-25T14:32:40.235Z,1.30
2018-06-25T14:35:15.830Z,1.30
2018-06-25T14:37:45.673Z,1.67
2018-06-25T14:40:14.701Z,1.57
2018-06-25T14:42:43.905Z,1.27
2018-06-25T14:45:14.875Z,1.30
2018-06-25T14:47:43.900Z,1.63
2018-06-25T14:50:12.841Z,1.53
2018-06-25T14:52:41.777Z,1.30
2018-06-25T14:55:11.389Z,1.53
2018-06-25T14:57:40.370Z,1.50
2018-06-25T15:00:09.292Z,1.60
2018-06-25T15:02:38.288Z,1.70
2018-06-25T15:05:10.735Z,1.57
2018-06-25T15:07:39.705Z,1.60
2018-06-25T15:10:08.663Z,1.50
2018-06-25T15:12:37.723Z,1.50
2018-06-25T15:15:06.702Z,1.33
2018-06-25T15:17:35.654Z,1.63
2018-06-25T15:20:04.701Z,2.30
2018-06-25T15:22:33.680Z,2.47
2018-06-25T15:25:02.644Z,1.50
2018-06-25T15:27:35.191Z,1.87
2018-06-25T15:30:04.258Z,1.90
2018-06-25T15:32:33.178Z,2.50
2018-06-25T15:35:02.255Z,1.93
2018-06-25T15:37:34.213Z,1.63
2018-06-25T15:40:06.589Z,1.90
2018-06-25T15:42:35.527Z,2.00
2018-06-25T15:45:05.491Z,2.00
2018-06-25T15:47:34.484Z,2.17
2018-06-25T15:50:04.866Z,1.90
2018-06-25T15:52:33.897Z,1.90
2018-06-25T15:55:02.921Z,1.90
2018-06-25T15:57:35.545Z,1.73
2018-06-25T16:00:04.798Z,1.93
2018-06-25T16:02:34.415Z,1.70
2018-06-25T16:05:05.405Z,1.63
2018-06-25T16:07:34.367Z,2.50
2018-06-25T16:10:03.358Z,1.90
2018-06-25T16:12:32.386Z,1.97
2018-06-25T16:15:01.306Z,2.00
2018-06-25T16:17:30.268Z,1.73
2018-06-25T16:19:59.244Z,2.10
2018-06-25T16:22:28.257Z,2.20
2018-06-25T16:24:57.184Z,2.20
2018-06-25T16:27:26.182Z,2.20
2018-06-25T16:29:55.139Z,2.13
2018-06-25T16:32:24.234Z,2.40
2018-06-25T16:34:53.154Z,3.00
2018-06-25T16:37:22.078Z,2.30
2018-06-25T16:39:51.064Z,2.50
2018-06-25T16:42:20.067Z,2.10
2018-06-25T16:44:49.038Z,2.20
2018-06-25T16:47:18.150Z,2.10
2018-06-25T16:49:47.115Z,2.30
2018-06-25T16:52:16.132Z,2.13
2018-06-25T16:54:45.256Z,2.43
2018-06-25T16:57:14.165Z,1.97
2018-06-25T16:59:46.310Z,2.60
2018-06-25T17:02:15.268Z,2.30
2018-06-25T17:04:44.183Z,2.10
2018-06-25T17:07:13.175Z,2.07
2018-06-25T17:09:45.433Z,2.53
2018-06-25T17:12:15.388Z,2.40
2018-06-25T17:14:44.320Z,2.20
2018-06-25T17:17:13.292Z,2.50
2018-06-25T17:19:42.279Z,2.80
2018-06-25T17:22:11.292Z,2.73
2018-06-25T17:24:40.274Z,2.57
2018-06-25T17:27:09.151Z,2.80
2018-06-25T17:29:38.168Z,3.23
2018-06-25T17:32:07.850Z,3.03
2018-06-25T17:34:36.764Z,2.60
2018-06-25T17:37:05.706Z,2.73
2018-06-25T17:39:34.644Z,3.17
2018-06-25T17:42:03.578Z,2.80
2018-06-25T17:44:32.561Z,2.90
2018-06-25T17:47:01.593Z,2.93
2018-06-25T17:49:30.537Z,2.87
2018-06-25T17:52:01.482Z,3.17
2018-06-25T17:54:30.463Z,3.00
2018-06-25T17:56:59.446Z,2.60
2018-06-25T17:59:31.949Z,3.13
2018-06-25T18:02:00.921Z,3.40
2018-06-25T18:04:29.916Z,2.93
2018-06-25T18:06:58.962Z,2.73
2018-06-25T18:09:27.875Z,3.63
2018-06-25T18:12:02.544Z,3.20
2018-06-25T18:14:31.493Z,3.53
2018-06-25T18:17:00.439Z,3.00
2018-06-25T18:19:29.408Z,3.10
2018-06-25T18:22:02.123Z,3.27
2018-06-25T18:24:31.082Z,3.00
2018-06-25T18:27:00.039Z,2.33
2018-06-25T18:29:28.988Z,2.60
2018-06-25T18:31:57.940Z,3.30
2018-06-25T18:34:26.878Z,3.10
2018-06-25T18:36:55.790Z,3.07
2018-06-25T18:39:24.754Z,3.27
2018-06-25T18:41:53.721Z,3.13
2018-06-25T18:44:23.534Z,3.27
2018-06-25T18:46:52.524Z,2.93
2018-06-25T18:49:24.902Z,3.10
2018-06-25T18:51:53.898Z,3.33
2018-06-25T18:54:22.859Z,2.80
2018-06-25T18:56:51.775Z,2.97
2018-06-25T18:59:20.774Z,2.90
2018-06-25T19:01:53.345Z,2.53
2018-06-25T19:04:22.325Z,2.53
2018-06-25T19:06:51.424Z,2.83
2018-06-25T19:09:20.437Z,3.00
2018-06-25T19:11:49.361Z,3.30
2018-06-25T19:14:18.328Z,3.30
2018-06-25T19:16:48.307Z,3.07
2018-06-25T19:19:17.256Z,2.83
2018-06-25T19:21:46.202Z,3.03
2018-06-25T19:24:15.179Z,3.53
2018-06-25T19:26:44.124Z,2.87
2018-06-25T19:29:13.091Z,3.30
2018-06-25T19:31:42.043Z,3.27
2018-06-25T19:34:10.984Z,3.17
2018-06-25T19:36:43.330Z,2.87
2018-06-25T19:39:13.531Z,3.23
2018-06-25T19:41:42.499Z,2.90
2018-06-25T19:44:12.280Z,3.07
2018-06-25T19:46:41.291Z,3.20
2018-06-25T19:49:15.848Z,3.13
2018-06-25T19:51:51.263Z,3.50
2018-06-25T19:54:20.241Z,3.37
2018-06-25T19:56:49.201Z,3.23
2018-06-25T19:59:18.160Z,3.47
2018-06-25T20:01:51.052Z,3.47
2018-06-25T20:04:20.048Z,3.47
2018-06-25T20:06:49.973Z,3.50
2018-06-25T20:09:18.925Z,3.47
2018-06-25T20:11:47.861Z,3.63
2018-06-25T20:14:16.821Z,3.80
2018-06-25T20:16:45.835Z,3.47
2018-06-25T20:19:20.204Z,4.43
2018-06-25T20:21:49.178Z,4.07
2018-06-25T20:24:18.144Z,4.03
2018-06-25T20:26:47.091Z,4.23
2018-06-25T20:29:17.176Z,4.10
2018-06-25T20:31:46.060Z,4.30
2018-06-25T20:34:15.033Z,3.37
2018-06-25T20:36:44.074Z,4.17
2018-06-25T20:39:18.729Z,4.33
2018-06-25T20:41:48.048Z,5.37
2018-06-25T20:44:17.046Z,4.90
2018-06-25T20:46:46.037Z,5.13
2018-06-25T20:49:15.002Z,5.70
2018-06-25T20:51:44.539Z,5.27
2018-06-25T20:54:15.607Z,5.27
2018-06-25T20:56:44.555Z,5.13
2018-06-25T20:59:13.538Z,5.57
2018-06-25T21:01:42.606Z,5.37
2018-06-25T21:04:11.565Z,6.23
2018-06-25T21:06:40.531Z,6.00
2018-06-25T21:09:11.136Z,5.63
2018-06-25T21:11:42.290Z,5.97
2018-06-25T21:14:11.242Z,5.43
2018-06-25T21:16:40.214Z,5.77
2018-06-25T21:19:09.154Z,5.30
2018-06-25T21:21:38.170Z,5.70
2018-06-25T21:24:07.129Z,5.47
2018-06-25T21:26:36.093Z,5.63
2018-06-25T21:29:05.457Z,5.73
2018-06-25T21:31:34.383Z,5.67
2018-06-25T21:34:07.188Z,6.57
2018-06-25T21:36:36.132Z,6.47
2018-06-25T21:39:07.026Z,6.47
2018-06-25T21:41:35.956Z,7.37
2018-06-25T21:44:05.017Z,7.50
2018-06-25T21:46:34.197Z,6.67
2018-06-25T21:49:03.553Z,6.80
2018-06-25T21:51:41.948Z,7.33
2018-06-25T21:54:10.870Z,8.33
2018-06-25T21:56:39.801Z,8.03
2018-06-25T21:59:08.792Z,7.47
2018-06-25T22:01:37.892Z,8.03
2018-06-25T22:04:06.973Z,7.73
2018-06-25T22:06:35.910Z,8.10
2018-06-25T22:09:08.128Z,8.17
2018-06-25T22:11:37.082Z,7.73
2018-06-25T22:14:06.074Z,8.43
2018-06-25T22:16:35.268Z,7.67
2018-06-25T22:19:04.502Z,7.57
2018-06-25T22:21:33.458Z,7.77
2018-06-25T22:24:02.502Z,8.17
2018-06-25T22:26:31.477Z,8.53
2018-06-25T22:29:00.444Z,7.97
2018-06-25T22:31:29.425Z,9.63
2018-06-25T22:33:58.384Z,8.40
2018-06-25T22:36:30.654Z,7.87
2018-06-25T22:38:59.696Z,8.47
2018-06-25T22:41:28.640Z,8.47
2018-06-25T22:44:08.924Z,9.00
2018-06-25T22:46:39.122Z,9.63
2018-06-25T22:49:13.623Z,8.37
2018-06-25T22:51:48.093Z,8.27
2018-06-25T22:54:17.049Z,8.00
2018-06-25T22:56:46.035Z,8.37
2018-06-25T22:59:15.032Z,9.07
2018-06-25T23:01:44.004Z,8.93
2018-06-25T23:04:12.918Z,9.20
2018-06-25T23:06:41.861Z,8.13
2018-06-25T23:09:11.666Z,8.23
2018-06-25T23:11:40.624Z,8.30
2018-06-25T23:14:09.571Z,9.03
2018-06-25T23:16:38.562Z,9.57
2018-06-25T23:19:07.500Z,8.90
2018-06-25T23:21:36.378Z,8.97
2018-06-25T23:24:05.361Z,8.27
2018-06-25T23:26:34.333Z,8.40
2018-06-25T23:29:03.380Z,7.10
2018-06-25T23:31:32.327Z,8.50
2018-06-25T23:34:01.269Z,7.90
2018-06-25T23:36:30.197Z,8.23
2018-06-25T23:38:59.141Z,8.27
2018-06-25T23:41:28.166Z,7.23
2018-06-25T23:43:57.183Z,8.23
2018-06-25T23:46:26.207Z,6.77
2018-06-25T23:48:55.139Z,8.27
2018-06-25T23:51:24.153Z,7.50
2018-06-25T23:53:53.138Z,7.70
2018-06-25T23:56:22.751Z,6.83
2018-06-25T23:58:52.048Z,7.53
